sensor_id;sensor_type;location;lat;lon;timestamp;P1;durP1;ratioP1;P2;durP2;ratioP2
64678;SDS011;51094;53.864;27.676;2023-04-24T00:01:14;1.63;;;1.63;;
64678;SDS011;51094;53.864;27.676;2023-04-24T00:03:41;1.80;;;1.80;;
64678;SDS011;51094;53.864;27.676;2023-04-24T00:06:08;1.80;;;1.80;;
64678;SDS011;51094;53.864;27.676;2023-04-24T00:08:35;1.85;;;1.85;;
64678;SDS011;51094;53.864;27.676;2023-04-24T00:11:02;1.88;;;1.88;;
64678;SDS011;51094;53.864;27.676;2023-04-24T00:13:29;1.80;;;1.80;;
64678;SDS011;51094;53.864;27.676;2023-04-24T00:15:56;1.90;;;1.90;;
64678;SDS011;51094;53.864;27.676;2023-04-24T00:18:23;2.00;;;2.00;;
64678;SDS011;51094;53.864;27.676;2023-04-24T00:20:50;1.83;;;1.83;;
64678;SDS011;51094;53.864;27.676;2023-04-24T00:23:16;2.05;;;1.95;;
64678;SDS011;51094;53.864;27.676;2023-04-24T00:25:43;1.92;;;1.92;;
64678;SDS011;51094;53.864;27.676;2023-04-24T00:28:10;2.30;;;2.30;;
64678;SDS011;51094;53.864;27.676;2023-04-24T00:30:37;2.17;;;2.17;;
64678;SDS011;51094;53.864;27.676;2023-04-24T00:33:04;1.80;;;1.80;;
64678;SDS011;51094;53.864;27.676;2023-04-24T00:35:31;2.08;;;2.08;;
64678;SDS011;51094;53.864;27.676;2023-04-24T00:37:58;1.73;;;1.73;;
64678;SDS011;51094;53.864;27.676;2023-04-24T00:40:25;2.20;;;2.20;;
64678;SDS011;51094;53.864;27.676;2023-04-24T00:42:51;2.20;;;2.10;;
64678;SDS011;51094;53.864;27.676;2023-04-24T00:45:19;1.98;;;1.98;;
64678;SDS011;51094;53.864;27.676;2023-04-24T00:47:46;1.55;;;1.55;;
64678;SDS011;51094;53.864;27.676;2023-04-24T00:50:14;1.67;;;1.67;;
64678;SDS011;51094;53.864;27.676;2023-04-24T00:52:41;1.92;;;1.83;;
64678;SDS011;51094;53.864;27.676;2023-04-24T00:55:08;1.45;;;1.45;;
64678;SDS011;51094;53.864;27.676;2023-04-24T00:57:35;1.80;;;1.80;;
64678;SDS011;51094;53.864;27.676;2023-04-24T01:00:03;1.85;;;1.85;;
64678;SDS011;51094;53.864;27.676;2023-04-24T01:02:34;1.48;;;1.48;;
64678;SDS011;51094;53.864;27.676;2023-04-24T01:05:01;1.63;;;1.63;;
64678;SDS011;51094;53.864;27.676;2023-04-24T01:07:29;1.70;;;1.70;;
64678;SDS011;51094;53.864;27.676;2023-04-24T01:09:56;1.77;;;1.77;;
64678;SDS011;51094;53.864;27.676;2023-04-24T01:12:24;1.60;;;1.60;;
64678;SDS011;51094;53.864;27.676;2023-04-24T01:14:51;1.63;;;1.63;;
64678;SDS011;51094;53.864;27.676;2023-04-24T01:17:17;1.73;;;1.73;;
64678;SDS011;51094;53.864;27.676;2023-04-24T01:19:46;1.67;;;1.67;;
64678;SDS011;51094;53.864;27.676;2023-04-24T01:22:13;1.67;;;1.67;;
64678;SDS011;51094;53.864;27.676;2023-04-24T01:24:41;1.50;;;1.50;;
64678;SDS011;51094;53.864;27.676;2023-04-24T01:27:11;1.60;;;1.60;;
64678;SDS011;51094;53.864;27.676;2023-04-24T01:29:38;1.45;;;1.45;;
64678;SDS011;51094;53.864;27.676;2023-04-24T01:32:06;1.50;;;1.50;;
64678;SDS011;51094;53.864;27.676;2023-04-24T01:34:33;1.50;;;1.50;;
64678;SDS011;51094;53.864;27.676;2023-04-24T01:37:00;1.60;;;1.60;;
64678;SDS011;51094;53.864;27.676;2023-04-24T01:39:27;1.50;;;1.50;;
64678;SDS011;51094;53.864;27.676;2023-04-24T01:41:55;1.50;;;1.50;;
64678;SDS011;51094;53.864;27.676;2023-04-24T01:44:22;1.60;;;1.60;;
64678;SDS011;51094;53.864;27.676;2023-04-24T01:46:50;1.60;;;1.60;;
64678;SDS011;51094;53.864;27.676;2023-04-24T01:49:17;1.42;;;1.42;;
64678;SDS011;51094;53.864;27.676;2023-04-24T01:51:44;1.60;;;1.60;;
64678;SDS011;51094;53.864;27.676;2023-04-24T01:54:11;1.50;;;1.50;;
64678;SDS011;51094;53.864;27.676;2023-04-24T01:56:42;1.60;;;1.60;;
64678;SDS011;51094;53.864;27.676;2023-04-24T01:59:10;1.52;;;1.52;;
64678;SDS011;51094;53.864;27.676;2023-04-24T02:01:37;1.52;;;1.52;;
64678;SDS011;51094;53.864;27.676;2023-04-24T02:04:05;1.40;;;1.40;;
64678;SDS011;51094;53.864;27.676;2023-04-24T02:06:34;1.30;;;1.30;;
64678;SDS011;51094;53.864;27.676;2023-04-24T02:09:01;1.40;;;1.40;;
64678;SDS011;51094;53.864;27.676;2023-04-24T02:11:29;1.38;;;1.38;;
64678;SDS011;51094;53.864;27.676;2023-04-24T02:13:57;1.70;;;1.70;;
64678;SDS011;51094;53.864;27.676;2023-04-24T02:16:24;1.35;;;1.35;;
64678;SDS011;51094;53.864;27.676;2023-04-24T02:18:51;1.50;;;1.50;;
64678;SDS011;51094;53.864;27.676;2023-04-24T02:21:18;1.73;;;1.73;;
64678;SDS011;51094;53.864;27.676;2023-04-24T02:23:45;1.40;;;1.40;;
64678;SDS011;51094;53.864;27.676;2023-04-24T02:26:12;1.30;;;1.30;;
64678;SDS011;51094;53.864;27.676;2023-04-24T02:28:39;1.50;;;1.50;;
64678;SDS011;51094;53.864;27.676;2023-04-24T02:31:06;1.50;;;1.50;;
64678;SDS011;51094;53.864;27.676;2023-04-24T02:33:33;1.40;;;1.40;;
64678;SDS011;51094;53.864;27.676;2023-04-24T02:35:59;1.40;;;1.40;;
64678;SDS011;51094;53.864;27.676;2023-04-24T02:38:26;1.58;;;1.58;;
64678;SDS011;51094;53.864;27.676;2023-04-24T02:40:53;1.50;;;1.50;;
64678;SDS011;51094;53.864;27.676;2023-04-24T02:43:20;1.38;;;1.38;;
64678;SDS011;51094;53.864;27.676;2023-04-24T02:45:47;1.30;;;1.30;;
64678;SDS011;51094;53.864;27.676;2023-04-24T02:48:14;1.30;;;1.30;;
64678;SDS011;51094;53.864;27.676;2023-04-24T02:50:41;1.40;;;1.40;;
64678;SDS011;51094;53.864;27.676;2023-04-24T02:53:08;1.45;;;1.45;;
64678;SDS011;51094;53.864;27.676;2023-04-24T02:55:35;1.30;;;1.30;;
64678;SDS011;51094;53.864;27.676;2023-04-24T02:58:02;1.20;;;1.20;;
64678;SDS011;51094;53.864;27.676;2023-04-24T03:00:29;1.40;;;1.40;;
64678;SDS011;51094;53.864;27.676;2023-04-24T03:02:56;1.40;;;1.40;;
64678;SDS011;51094;53.864;27.676;2023-04-24T03:05:23;1.50;;;1.50;;
64678;SDS011;51094;53.864;27.676;2023-04-24T03:07:51;1.50;;;1.50;;
64678;SDS011;51094;53.864;27.676;2023-04-24T03:10:20;1.58;;;1.50;;
64678;SDS011;51094;53.864;27.676;2023-04-24T03:12:49;1.50;;;1.50;;
64678;SDS011;51094;53.864;27.676;2023-04-24T03:15:20;1.60;;;1.60;;
64678;SDS011;51094;53.864;27.676;2023-04-24T03:17:47;1.52;;;1.52;;
64678;SDS011;51094;53.864;27.676;2023-04-24T03:20:14;1.50;;;1.50;;
64678;SDS011;51094;53.864;27.676;2023-04-24T03:22:42;1.40;;;1.40;;
64678;SDS011;51094;53.864;27.676;2023-04-24T03:25:11;1.50;;;1.50;;
64678;SDS011;51094;53.864;27.676;2023-04-24T03:27:37;1.45;;;1.45;;
64678;SDS011;51094;53.864;27.676;2023-04-24T03:30:24;1.35;;;1.35;;
64678;SDS011;51094;53.864;27.676;2023-04-24T03:32:59;1.48;;;1.48;;
64678;SDS011;51094;53.864;27.676;2023-04-24T03:35:29;1.50;;;1.50;;
64678;SDS011;51094;53.864;27.676;2023-04-24T03:38:00;1.40;;;1.40;;
64678;SDS011;51094;53.864;27.676;2023-04-24T03:40:45;1.38;;;1.38;;
64678;SDS011;51094;53.864;27.676;2023-04-24T03:43:29;1.70;;;1.70;;
64678;SDS011;51094;53.864;27.676;2023-04-24T03:46:01;1.40;;;1.40;;
64678;SDS011;51094;53.864;27.676;2023-04-24T03:48:30;1.45;;;1.45;;
64678;SDS011;51094;53.864;27.676;2023-04-24T03:50:57;1.33;;;1.33;;
64678;SDS011;51094;53.864;27.676;2023-04-24T03:53:24;1.67;;;1.67;;
64678;SDS011;51094;53.864;27.676;2023-04-24T03:55:54;1.60;;;1.60;;
64678;SDS011;51094;53.864;27.676;2023-04-24T03:58:22;1.30;;;1.30;;
64678;SDS011;51094;53.864;27.676;2023-04-24T04:00:49;1.50;;;1.50;;
64678;SDS011;51094;53.864;27.676;2023-04-24T04:03:35;1.30;;;1.30;;
64678;SDS011;51094;53.864;27.676;2023-04-24T04:06:02;1.50;;;1.50;;
64678;SDS011;51094;53.864;27.676;2023-04-24T04:08:29;1.40;;;1.40;;
64678;SDS011;51094;53.864;27.676;2023-04-24T04:10:57;1.40;;;1.40;;
64678;SDS011;51094;53.864;27.676;2023-04-24T04:13:24;1.40;;;1.40;;
64678;SDS011;51094;53.864;27.676;2023-04-24T04:15:51;1.50;;;1.50;;
64678;SDS011;51094;53.864;27.676;2023-04-24T04:18:18;1.40;;;1.40;;
64678;SDS011;51094;53.864;27.676;2023-04-24T04:20:45;1.50;;;1.50;;
64678;SDS011;51094;53.864;27.676;2023-04-24T04:23:17;1.40;;;1.40;;
64678;SDS011;51094;53.864;27.676;2023-04-24T04:26:02;1.30;;;1.30;;
64678;SDS011;51094;53.864;27.676;2023-04-24T04:28:43;1.70;;;1.70;;
64678;SDS011;51094;53.864;27.676;2023-04-24T04:31:11;1.50;;;1.50;;
64678;SDS011;51094;53.864;27.676;2023-04-24T04:33:38;1.50;;;1.50;;
64678;SDS011;51094;53.864;27.676;2023-04-24T04:36:07;1.45;;;1.45;;
64678;SDS011;51094;53.864;27.676;2023-04-24T04:38:38;1.63;;;1.63;;
64678;SDS011;51094;53.864;27.676;2023-04-24T04:41:38;1.50;;;1.50;;
64678;SDS011;51094;53.864;27.676;2023-04-24T04:44:08;1.40;;;1.40;;
64678;SDS011;51094;53.864;27.676;2023-04-24T04:46:35;1.30;;;1.30;;
64678;SDS011;51094;53.864;27.676;2023-04-24T04:49:15;1.60;;;1.60;;
64678;SDS011;51094;53.864;27.676;2023-04-24T04:51:44;1.50;;;1.50;;
64678;SDS011;51094;53.864;27.676;2023-04-24T04:54:11;1.40;;;1.40;;
64678;SDS011;51094;53.864;27.676;2023-04-24T04:56:38;1.40;;;1.40;;
64678;SDS011;51094;53.864;27.676;2023-04-24T04:59:05;1.50;;;1.50;;
64678;SDS011;51094;53.864;27.676;2023-04-24T05:01:34;1.40;;;1.40;;
64678;SDS011;51094;53.864;27.676;2023-04-24T05:04:01;1.40;;;1.40;;
64678;SDS011;51094;53.864;27.676;2023-04-24T05:06:28;1.50;;;1.50;;
64678;SDS011;51094;53.864;27.676;2023-04-24T05:08:55;1.80;;;1.80;;
64678;SDS011;51094;53.864;27.676;2023-04-24T05:11:31;1.70;;;1.70;;
64678;SDS011;51094;53.864;27.676;2023-04-24T05:14:00;1.50;;;1.50;;
64678;SDS011;51094;53.864;27.676;2023-04-24T05:16:38;1.60;;;1.60;;
64678;SDS011;51094;53.864;27.676;2023-04-24T05:19:06;1.40;;;1.40;;
64678;SDS011;51094;53.864;27.676;2023-04-24T05:21:37;1.50;;;1.50;;
64678;SDS011;51094;53.864;27.676;2023-04-24T05:24:06;1.70;;;1.70;;
64678;SDS011;51094;53.864;27.676;2023-04-24T05:26:45;1.55;;;1.55;;
64678;SDS011;51094;53.864;27.676;2023-04-24T05:29:15;1.70;;;1.70;;
64678;SDS011;51094;53.864;27.676;2023-04-24T05:31:42;1.55;;;1.55;;
64678;SDS011;51094;53.864;27.676;2023-04-24T05:34:09;1.58;;;1.58;;
64678;SDS011;51094;53.864;27.676;2023-04-24T05:36:39;1.90;;;1.90;;
64678;SDS011;51094;53.864;27.676;2023-04-24T05:39:07;1.67;;;1.67;;
64678;SDS011;51094;53.864;27.676;2023-04-24T05:41:35;1.40;;;1.40;;
64678;SDS011;51094;53.864;27.676;2023-04-24T05:44:01;1.60;;;1.60;;
64678;SDS011;51094;53.864;27.676;2023-04-24T05:46:28;1.50;;;1.50;;
64678;SDS011;51094;53.864;27.676;2023-04-24T05:48:56;1.30;;;1.30;;
64678;SDS011;51094;53.864;27.676;2023-04-24T05:51:23;1.55;;;1.52;;
64678;SDS011;51094;53.864;27.676;2023-04-24T05:53:50;1.50;;;1.50;;
64678;SDS011;51094;53.864;27.676;2023-04-24T05:56:17;1.60;;;1.60;;
64678;SDS011;51094;53.864;27.676;2023-04-24T05:58:45;1.70;;;1.60;;
64678;SDS011;51094;53.864;27.676;2023-04-24T06:01:13;1.50;;;1.50;;
64678;SDS011;51094;53.864;27.676;2023-04-24T06:03:42;1.73;;;1.73;;
64678;SDS011;51094;53.864;27.676;2023-04-24T06:06:09;1.60;;;1.60;;
64678;SDS011;51094;53.864;27.676;2023-04-24T06:08:35;1.40;;;1.40;;
64678;SDS011;51094;53.864;27.676;2023-04-24T06:11:02;1.45;;;1.45;;
64678;SDS011;51094;53.864;27.676;2023-04-24T06:13:31;1.50;;;1.50;;
64678;SDS011;51094;53.864;27.676;2023-04-24T06:16:18;1.40;;;1.40;;
64678;SDS011;51094;53.864;27.676;2023-04-24T06:18:52;1.70;;;1.70;;
64678;SDS011;51094;53.864;27.676;2023-04-24T06:21:19;1.50;;;1.50;;
64678;SDS011;51094;53.864;27.676;2023-04-24T06:23:46;1.63;;;1.63;;
64678;SDS011;51094;53.864;27.676;2023-04-24T06:26:14;1.90;;;1.90;;
64678;SDS011;51094;53.864;27.676;2023-04-24T06:28:40;1.80;;;1.80;;
64678;SDS011;51094;53.864;27.676;2023-04-24T06:31:07;1.70;;;1.70;;
64678;SDS011;51094;53.864;27.676;2023-04-24T06:33:34;1.95;;;1.95;;
64678;SDS011;51094;53.864;27.676;2023-04-24T06:36:01;1.70;;;1.70;;
64678;SDS011;51094;53.864;27.676;2023-04-24T06:38:30;1.85;;;1.85;;
64678;SDS011;51094;53.864;27.676;2023-04-24T06:40:57;1.73;;;1.73;;
64678;SDS011;51094;53.864;27.676;2023-04-24T06:43:24;2.15;;;2.10;;
64678;SDS011;51094;53.864;27.676;2023-04-24T06:45:53;2.15;;;2.05;;
64678;SDS011;51094;53.864;27.676;2023-04-24T06:48:23;1.90;;;1.80;;
64678;SDS011;51094;53.864;27.676;2023-04-24T06:50:50;1.88;;;1.88;;
64678;SDS011;51094;53.864;27.676;2023-04-24T06:53:19;2.10;;;2.10;;
64678;SDS011;51094;53.864;27.676;2023-04-24T06:55:46;1.90;;;1.80;;
64678;SDS011;51094;53.864;27.676;2023-04-24T06:58:13;1.77;;;1.77;;
64678;SDS011;51094;53.864;27.676;2023-04-24T07:00:41;1.70;;;1.60;;
64678;SDS011;51094;53.864;27.676;2023-04-24T07:03:08;1.73;;;1.73;;
64678;SDS011;51094;53.864;27.676;2023-04-24T07:05:34;1.73;;;1.73;;
64678;SDS011;51094;53.864;27.676;2023-04-24T07:08:02;1.45;;;1.45;;
64678;SDS011;51094;53.864;27.676;2023-04-24T07:10:33;1.35;;;1.35;;
64678;SDS011;51094;53.864;27.676;2023-04-24T07:13:02;1.50;;;1.40;;
64678;SDS011;51094;53.864;27.676;2023-04-24T07:15:29;1.50;;;1.50;;
64678;SDS011;51094;53.864;27.676;2023-04-24T07:17:56;1.50;;;1.50;;
64678;SDS011;51094;53.864;27.676;2023-04-24T07:20:23;1.23;;;1.23;;
64678;SDS011;51094;53.864;27.676;2023-04-24T07:22:52;1.33;;;1.33;;
64678;SDS011;51094;53.864;27.676;2023-04-24T07:25:20;1.33;;;1.33;;
64678;SDS011;51094;53.864;27.676;2023-04-24T07:27:47;1.50;;;1.50;;
64678;SDS011;51094;53.864;27.676;2023-04-24T07:30:15;1.30;;;1.30;;
64678;SDS011;51094;53.864;27.676;2023-04-24T07:32:42;1.40;;;1.40;;
64678;SDS011;51094;53.864;27.676;2023-04-24T07:35:09;1.40;;;1.40;;
64678;SDS011;51094;53.864;27.676;2023-04-24T07:37:36;1.20;;;1.20;;
64678;SDS011;51094;53.864;27.676;2023-04-24T07:40:06;1.00;;;1.00;;
64678;SDS011;51094;53.864;27.676;2023-04-24T07:42:35;1.00;;;1.00;;
64678;SDS011;51094;53.864;27.676;2023-04-24T07:45:02;0.85;;;0.85;;
64678;SDS011;51094;53.864;27.676;2023-04-24T07:47:33;0.82;;;0.82;;
64678;SDS011;51094;53.864;27.676;2023-04-24T07:50:00;0.90;;;0.90;;
64678;SDS011;51094;53.864;27.676;2023-04-24T07:52:27;0.90;;;0.90;;
64678;SDS011;51094;53.864;27.676;2023-04-24T07:54:54;0.73;;;0.73;;
64678;SDS011;51094;53.864;27.676;2023-04-24T07:57:25;0.80;;;0.80;;
64678;SDS011;51094;53.864;27.676;2023-04-24T07:59:52;0.80;;;0.80;;
64678;SDS011;51094;53.864;27.676;2023-04-24T08:02:18;0.63;;;0.63;;
64678;SDS011;51094;53.864;27.676;2023-04-24T08:04:45;1.05;;;1.00;;
64678;SDS011;51094;53.864;27.676;2023-04-24T08:07:15;0.95;;;0.80;;
64678;SDS011;51094;53.864;27.676;2023-04-24T08:09:43;0.95;;;0.88;;
64678;SDS011;51094;53.864;27.676;2023-04-24T08:14:39;0.70;;;0.70;;
64678;SDS011;51094;53.864;27.676;2023-04-24T08:17:09;1.13;;;0.90;;
64678;SDS011;51094;53.864;27.676;2023-04-24T08:19:38;0.75;;;0.70;;
64678;SDS011;51094;53.864;27.676;2023-04-24T08:22:15;0.70;;;0.70;;
64678;SDS011;51094;53.864;27.676;2023-04-24T08:24:41;0.80;;;0.80;;
64678;SDS011;51094;53.864;27.676;2023-04-24T08:27:08;0.70;;;0.70;;
64678;SDS011;51094;53.864;27.676;2023-04-24T08:29:36;0.80;;;0.80;;
64678;SDS011;51094;53.864;27.676;2023-04-24T08:32:03;0.73;;;0.73;;
64678;SDS011;51094;53.864;27.676;2023-04-24T08:34:30;0.70;;;0.70;;
64678;SDS011;51094;53.864;27.676;2023-04-24T08:36:56;0.70;;;0.70;;
64678;SDS011;51094;53.864;27.676;2023-04-24T08:39:23;0.70;;;0.70;;
64678;SDS011;51094;53.864;27.676;2023-04-24T08:41:55;0.80;;;0.80;;
64678;SDS011;51094;53.864;27.676;2023-04-24T08:44:22;0.80;;;0.80;;
64678;SDS011;51094;53.864;27.676;2023-04-24T08:46:49;0.82;;;0.82;;
64678;SDS011;51094;53.864;27.676;2023-04-24T08:49:18;0.90;;;0.90;;
64678;SDS011;51094;53.864;27.676;2023-04-24T08:51:45;0.90;;;0.90;;
64678;SDS011;51094;53.864;27.676;2023-04-24T08:54:18;0.75;;;0.75;;
64678;SDS011;51094;53.864;27.676;2023-04-24T08:59:16;0.80;;;0.80;;
64678;SDS011;51094;53.864;27.676;2023-04-24T09:01:44;0.70;;;0.70;;
64678;SDS011;51094;53.864;27.676;2023-04-24T09:04:16;0.80;;;0.80;;
64678;SDS011;51094;53.864;27.676;2023-04-24T09:06:49;0.80;;;0.80;;
64678;SDS011;51094;53.864;27.676;2023-04-24T09:09:16;0.80;;;0.80;;
64678;SDS011;51094;53.864;27.676;2023-04-24T09:11:44;0.80;;;0.80;;
64678;SDS011;51094;53.864;27.676;2023-04-24T09:14:12;0.80;;;0.80;;
64678;SDS011;51094;53.864;27.676;2023-04-24T09:16:39;0.80;;;0.80;;
64678;SDS011;51094;53.864;27.676;2023-04-24T09:19:08;0.80;;;0.80;;
64678;SDS011;51094;53.864;27.676;2023-04-24T09:21:37;1.00;;;1.00;;
64678;SDS011;51094;53.864;27.676;2023-04-24T09:24:07;0.80;;;0.80;;
64678;SDS011;51094;53.864;27.676;2023-04-24T09:26:43;0.85;;;0.85;;
64678;SDS011;51094;53.864;27.676;2023-04-24T09:29:17;0.80;;;0.80;;
64678;SDS011;51094;53.864;27.676;2023-04-24T09:31:45;0.80;;;0.80;;
64678;SDS011;51094;53.864;27.676;2023-04-24T09:34:25;0.80;;;0.80;;
64678;SDS011;51094;53.864;27.676;2023-04-24T09:36:54;2.13;;;2.13;;
64678;SDS011;51094;53.864;27.676;2023-04-24T09:39:22;0.95;;;0.90;;
64678;SDS011;51094;53.864;27.676;2023-04-24T09:42:01;0.80;;;0.80;;
64678;SDS011;51094;53.864;27.676;2023-04-24T09:44:29;0.75;;;0.75;;
64678;SDS011;51094;53.864;27.676;2023-04-24T09:46:58;0.90;;;0.90;;
64678;SDS011;51094;53.864;27.676;2023-04-24T09:49:28;0.70;;;0.70;;
64678;SDS011;51094;53.864;27.676;2023-04-24T09:52:06;0.73;;;0.73;;
64678;SDS011;51094;53.864;27.676;2023-04-24T09:54:34;0.98;;;0.98;;
64678;SDS011;51094;53.864;27.676;2023-04-24T09:57:14;1.00;;;1.00;;
64678;SDS011;51094;53.864;27.676;2023-04-24T09:59:45;0.80;;;0.80;;
64678;SDS011;51094;53.864;27.676;2023-04-24T10:02:19;0.88;;;0.88;;
64678;SDS011;51094;53.864;27.676;2023-04-24T10:04:56;0.80;;;0.80;;
64678;SDS011;51094;53.864;27.676;2023-04-24T10:07:28;0.80;;;0.80;;
64678;SDS011;51094;53.864;27.676;2023-04-24T10:09:55;0.77;;;0.77;;
64678;SDS011;51094;53.864;27.676;2023-04-24T10:12:22;0.70;;;0.70;;
64678;SDS011;51094;53.864;27.676;2023-04-24T10:14:49;0.80;;;0.80;;
64678;SDS011;51094;53.864;27.676;2023-04-24T10:17:17;0.68;;;0.68;;
64678;SDS011;51094;53.864;27.676;2023-04-24T10:19:45;0.80;;;0.80;;
64678;SDS011;51094;53.864;27.676;2023-04-24T10:22:12;0.70;;;0.70;;
64678;SDS011;51094;53.864;27.676;2023-04-24T10:24:48;0.80;;;0.80;;
64678;SDS011;51094;53.864;27.676;2023-04-24T10:27:16;0.75;;;0.75;;
64678;SDS011;51094;53.864;27.676;2023-04-24T10:29:44;0.77;;;0.77;;
64678;SDS011;51094;53.864;27.676;2023-04-24T10:32:13;0.77;;;0.77;;
64678;SDS011;51094;53.864;27.676;2023-04-24T10:34:41;0.60;;;0.60;;
64678;SDS011;51094;53.864;27.676;2023-04-24T10:37:08;0.60;;;0.60;;
64678;SDS011;51094;53.864;27.676;2023-04-24T10:39:40;0.52;;;0.52;;
64678;SDS011;51094;53.864;27.676;2023-04-24T10:42:16;0.60;;;0.60;;
64678;SDS011;51094;53.864;27.676;2023-04-24T10:44:43;0.60;;;0.60;;
64678;SDS011;51094;53.864;27.676;2023-04-24T10:47:15;0.65;;;0.65;;
64678;SDS011;51094;53.864;27.676;2023-04-24T10:49:45;0.90;;;0.90;;
64678;SDS011;51094;53.864;27.676;2023-04-24T10:52:12;0.80;;;0.80;;
64678;SDS011;51094;53.864;27.676;2023-04-24T10:54:42;0.80;;;0.80;;
64678;SDS011;51094;53.864;27.676;2023-04-24T10:59:51;0.70;;;0.70;;
64678;SDS011;51094;53.864;27.676;2023-04-24T11:02:41;0.70;;;0.70;;
64678;SDS011;51094;53.864;27.676;2023-04-24T11:05:18;0.60;;;0.60;;
64678;SDS011;51094;53.864;27.676;2023-04-24T11:11:17;0.60;;;0.60;;
64678;SDS011;51094;53.864;27.676;2023-04-24T11:16:23;0.60;;;0.60;;
64678;SDS011;51094;53.864;27.676;2023-04-24T11:21:42;0.70;;;0.70;;
64678;SDS011;51094;53.864;27.676;2023-04-24T11:26:51;0.85;;;0.85;;
64678;SDS011;51094;53.864;27.676;2023-04-24T11:32:18;0.60;;;0.60;;
64678;SDS011;51094;53.864;27.676;2023-04-24T11:34:58;0.80;;;0.80;;
64678;SDS011;51094;53.864;27.676;2023-04-24T11:37:28;0.82;;;0.82;;
64678;SDS011;51094;53.864;27.676;2023-04-24T11:39:59;0.70;;;0.70;;
64678;SDS011;51094;53.864;27.676;2023-04-24T11:42:27;0.70;;;0.70;;
64678;SDS011;51094;53.864;27.676;2023-04-24T11:44:55;0.85;;;0.85;;
64678;SDS011;51094;53.864;27.676;2023-04-24T11:47:29;0.70;;;0.70;;
64678;SDS011;51094;53.864;27.676;2023-04-24T11:49:59;0.80;;;0.80;;
64678;SDS011;51094;53.864;27.676;2023-04-24T11:52:28;0.73;;;0.73;;
64678;SDS011;51094;53.864;27.676;2023-04-24T11:54:56;0.60;;;0.60;;
64678;SDS011;51094;53.864;27.676;2023-04-24T11:57:24;0.80;;;0.80;;
64678;SDS011;51094;53.864;27.676;2023-04-24T11:59:54;0.80;;;0.80;;
64678;SDS011;51094;53.864;27.676;2023-04-24T12:02:24;0.70;;;0.70;;
64678;SDS011;51094;53.864;27.676;2023-04-24T12:04:57;0.80;;;0.80;;
64678;SDS011;51094;53.864;27.676;2023-04-24T12:07:24;0.80;;;0.80;;
64678;SDS011;51094;53.864;27.676;2023-04-24T12:09:58;0.70;;;0.70;;
64678;SDS011;51094;53.864;27.676;2023-04-24T12:12:27;0.70;;;0.70;;
64678;SDS011;51094;53.864;27.676;2023-04-24T12:14:55;0.77;;;0.77;;
64678;SDS011;51094;53.864;27.676;2023-04-24T12:17:28;0.70;;;0.70;;
64678;SDS011;51094;53.864;27.676;2023-04-24T12:20:02;0.70;;;0.70;;
64678;SDS011;51094;53.864;27.676;2023-04-24T12:22:47;0.70;;;0.70;;
64678;SDS011;51094;53.864;27.676;2023-04-24T12:25:20;0.80;;;0.80;;
64678;SDS011;51094;53.864;27.676;2023-04-24T12:27:54;0.80;;;0.80;;
64678;SDS011;51094;53.864;27.676;2023-04-24T12:30:34;0.80;;;0.80;;
64678;SDS011;51094;53.864;27.676;2023-04-24T12:33:05;0.80;;;0.80;;
64678;SDS011;51094;53.864;27.676;2023-04-24T12:35:33;0.90;;;0.90;;
64678;SDS011;51094;53.864;27.676;2023-04-24T12:38:07;0.70;;;0.70;;
64678;SDS011;51094;53.864;27.676;2023-04-24T12:40:38;1.00;;;1.00;;
64678;SDS011;51094;53.864;27.676;2023-04-24T12:43:18;1.00;;;1.00;;
64678;SDS011;51094;53.864;27.676;2023-04-24T12:45:49;0.80;;;0.80;;
64678;SDS011;51094;53.864;27.676;2023-04-24T12:48:18;0.98;;;0.98;;
64678;SDS011;51094;53.864;27.676;2023-04-24T12:50:46;0.80;;;0.80;;
64678;SDS011;51094;53.864;27.676;2023-04-24T12:53:13;0.90;;;0.90;;
64678;SDS011;51094;53.864;27.676;2023-04-24T12:55:46;0.90;;;0.90;;
64678;SDS011;51094;53.864;27.676;2023-04-24T12:58:19;0.88;;;0.88;;
64678;SDS011;51094;53.864;27.676;2023-04-24T13:00:49;0.82;;;0.82;;
64678;SDS011;51094;53.864;27.676;2023-04-24T13:03:17;0.80;;;0.80;;
64678;SDS011;51094;53.864;27.676;2023-04-24T13:05:44;0.85;;;0.85;;
64678;SDS011;51094;53.864;27.676;2023-04-24T13:08:11;0.75;;;0.75;;
64678;SDS011;51094;53.864;27.676;2023-04-24T13:10:41;0.77;;;0.77;;
64678;SDS011;51094;53.864;27.676;2023-04-24T13:13:10;1.00;;;1.00;;
64678;SDS011;51094;53.864;27.676;2023-04-24T13:15:38;0.70;;;0.70;;
64678;SDS011;51094;53.864;27.676;2023-04-24T13:18:05;0.70;;;0.70;;
64678;SDS011;51094;53.864;27.676;2023-04-24T13:20:32;0.80;;;0.80;;
64678;SDS011;51094;53.864;27.676;2023-04-24T13:23:05;1.17;;;1.17;;
64678;SDS011;51094;53.864;27.676;2023-04-24T13:25:35;0.80;;;0.80;;
64678;SDS011;51094;53.864;27.676;2023-04-24T13:28:03;0.70;;;0.70;;
64678;SDS011;51094;53.864;27.676;2023-04-24T13:30:32;0.82;;;0.82;;
64678;SDS011;51094;53.864;27.676;2023-04-24T13:32:59;0.85;;;0.85;;
64678;SDS011;51094;53.864;27.676;2023-04-24T13:35:29;0.82;;;0.82;;
64678;SDS011;51094;53.864;27.676;2023-04-24T13:37:58;0.80;;;0.80;;
64678;SDS011;51094;53.864;27.676;2023-04-24T13:40:37;0.90;;;0.90;;
64678;SDS011;51094;53.864;27.676;2023-04-24T13:43:04;0.80;;;0.80;;
64678;SDS011;51094;53.864;27.676;2023-04-24T13:45:37;0.70;;;0.70;;
64678;SDS011;51094;53.864;27.676;2023-04-24T13:48:06;0.80;;;0.80;;
64678;SDS011;51094;53.864;27.676;2023-04-24T13:50:35;1.00;;;1.00;;
64678;SDS011;51094;53.864;27.676;2023-04-24T13:53:03;0.90;;;0.90;;
64678;SDS011;51094;53.864;27.676;2023-04-24T13:55:30;1.00;;;1.00;;
64678;SDS011;51094;53.864;27.676;2023-04-24T13:57:57;0.90;;;0.90;;
64678;SDS011;51094;53.864;27.676;2023-04-24T14:00:29;0.77;;;0.77;;
64678;SDS011;51094;53.864;27.676;2023-04-24T14:02:58;1.00;;;1.00;;
64678;SDS011;51094;53.864;27.676;2023-04-24T14:05:25;1.00;;;1.00;;
64678;SDS011;51094;53.864;27.676;2023-04-24T14:07:54;0.98;;;0.98;;
64678;SDS011;51094;53.864;27.676;2023-04-24T14:10:21;1.10;;;1.10;;
64678;SDS011;51094;53.864;27.676;2023-04-24T14:12:48;1.10;;;1.10;;
64678;SDS011;51094;53.864;27.676;2023-04-24T14:15:18;0.77;;;0.77;;
64678;SDS011;51094;53.864;27.676;2023-04-24T14:17:45;1.05;;;1.05;;
64678;SDS011;51094;53.864;27.676;2023-04-24T14:20:12;0.80;;;0.80;;
64678;SDS011;51094;53.864;27.676;2023-04-24T14:22:39;0.85;;;0.85;;
64678;SDS011;51094;53.864;27.676;2023-04-24T14:25:06;0.90;;;0.90;;
64678;SDS011;51094;53.864;27.676;2023-04-24T14:27:35;0.80;;;0.80;;
64678;SDS011;51094;53.864;27.676;2023-04-24T14:30:03;1.00;;;1.00;;
64678;SDS011;51094;53.864;27.676;2023-04-24T14:32:31;1.00;;;1.00;;
64678;SDS011;51094;53.864;27.676;2023-04-24T14:34:57;0.90;;;0.90;;
64678;SDS011;51094;53.864;27.676;2023-04-24T14:37:26;0.80;;;0.80;;
64678;SDS011;51094;53.864;27.676;2023-04-24T14:39:53;1.00;;;1.00;;
64678;SDS011;51094;53.864;27.676;2023-04-24T14:42:40;0.95;;;0.95;;
64678;SDS011;51094;53.864;27.676;2023-04-24T14:45:07;0.80;;;0.80;;
64678;SDS011;51094;53.864;27.676;2023-04-24T14:47:35;0.88;;;0.88;;
64678;SDS011;51094;53.864;27.676;2023-04-24T14:50:03;0.85;;;0.85;;
64678;SDS011;51094;53.864;27.676;2023-04-24T14:52:33;0.90;;;0.90;;
64678;SDS011;51094;53.864;27.676;2023-04-24T14:55:01;0.90;;;0.90;;
64678;SDS011;51094;53.864;27.676;2023-04-24T14:57:32;1.10;;;1.10;;
64678;SDS011;51094;53.864;27.676;2023-04-24T15:00:08;1.30;;;1.30;;
64678;SDS011;51094;53.864;27.676;2023-04-24T15:02:36;1.00;;;1.00;;
64678;SDS011;51094;53.864;27.676;2023-04-24T15:05:06;0.90;;;0.90;;
64678;SDS011;51094;53.864;27.676;2023-04-24T15:07:35;1.08;;;1.08;;